Shizka — DSQL2 — position and weather

sailwx.info

Track history (hours):
 
Tides and Currents Weather Stations Pressure Air Temp Water Temp Dewpoint Dewpoint Depression Visibility Wind Speed Wind Dir Waves Ship Positions

Shizka

Last reported at 2018-Jun-22 06:24 UTC. Time now 2018-Jun-23 00:54 UTC.
Position N 35°09' E 139°42'.

Length 74 m; draft 5.2 m.

Type: Cargo ship. MMSI: 441613000.

Date/timePositionNaut miles runAvg speedWind from/ knotsBaromVisibWave heightAir tempDewpointWater temp
2018-Jun-22 06:24N 35°09' E 139°42'4 9.4
2018-Jun-22 05:58N 35°12' E 139°45'4 9.2
2018-Jun-22 05:30N 35°16' E 139°46'510.0
2018-Jun-22 05:00N 35°20' E 139°42'5 9.3
2018-Jun-22 04:30N 35°25' E 139°44'4 8.1
2018-Jun-22 04:01N 35°24' E 139°48'3 1.8
2018-Jun-22 02:24N 35°22' E 139°51'0 0.0
2018-Jun-22 01:45N 35°22' E 139°51'0 0.0
2018-Jun-22 01:27N 35°22' E 139°51'0 0.0
2018-Jun-22 01:00N 35°22' E 139°51'0 0.0
2018-Jun-22 00:24N 35°22' E 139°51'0 0.0
2018-Jun-22 00:00N 35°22' E 139°51'0 0.0
2018-Jun-21 23:27N 35°22' E 139°51'0 0.0
2018-Jun-21 22:57N 35°22' E 139°51'0 0.0
2018-Jun-21 22:27N 35°22' E 139°51'0 0.0
2018-Jun-21 21:57N 35°22' E 139°51'0 0.0
2018-Jun-21 21:30N 35°22' E 139°51'0 0.0
2018-Jun-21 20:57N 35°22' E 139°51'0 0.0
2018-Jun-21 20:30N 35°22' E 139°51'0 0.0
2018-Jun-21 20:00N 35°22' E 139°51'0 0.0
2018-Jun-21 19:29N 35°22' E 139°51'0 0.0
2018-Jun-21 19:00N 35°22' E 139°51'0 0.0
2018-Jun-21 18:31N 35°22' E 139°51'0 0.0
2018-Jun-21 17:58N 35°22' E 139°51'0 0.0
2018-Jun-21 17:31N 35°22' E 139°51'0 0.0
2018-Jun-21 17:00N 35°22' E 139°51'0 0.0
2018-Jun-21 16:25N 35°22' E 139°51'0 0.0
2018-Jun-21 16:00N 35°22' E 139°51'0 0.0
2018-Jun-21 15:30N 35°22' E 139°51'0 0.0
2018-Jun-21 15:01N 35°22' E 139°51'0 0.0
2018-Jun-21 14:31N 35°22' E 139°51'0 0.0
2018-Jun-21 14:01N 35°22' E 139°51'0 0.0
2018-Jun-21 13:29N 35°22' E 139°51'0 0.0
2018-Jun-21 13:00N 35°22' E 139°51'0 0.0
2018-Jun-21 12:30N 35°22' E 139°51'0 0.0
2018-Jun-21 12:00N 35°22' E 139°51'0 0.0
2018-Jun-21 11:31N 35°22' E 139°51'0 0.0
2018-Jun-21 11:00N 35°22' E 139°51'0 0.0
2018-Jun-21 10:30N 35°22' E 139°51'0 0.0
2018-Jun-21 09:59N 35°22' E 139°51'0 0.0
2018-Jun-21 09:29N 35°22' E 139°51'0 0.0
2018-Jun-21 09:00N 35°22' E 139°51'0 0.0
2018-Jun-21 08:30N 35°22' E 139°51'0 0.0
2018-Jun-21 08:00N 35°22' E 139°51'0 0.0
2018-Jun-21 07:30N 35°22' E 139°51'0 0.0
2018-Jun-21 07:00N 35°22' E 139°51'0 0.0
2018-Jun-21 06:30N 35°22' E 139°51'0 0.0
2018-Jun-21 06:01N 35°22' E 139°51'0 0.0
2018-Jun-21 05:30N 35°22' E 139°51'0 0.0
2018-Jun-21 05:00N 35°22' E 139°51'0 0.0
2018-Jun-21 04:30N 35°22' E 139°51'0 0.0
2018-Jun-21 04:00N 35°22' E 139°51'0 0.0
2018-Jun-21 03:28N 35°22' E 139°51'0 0.0
2018-Jun-21 02:59N 35°22' E 139°51'0 0.0
2018-Jun-21 02:29N 35°22' E 139°51'0 0.0
2018-Jun-21 01:59N 35°22' E 139°51'0 0.0
2018-Jun-21 01:30N 35°22' E 139°51'0 0.0
2018-Jun-21 01:00N 35°22' E 139°51'0 0.0
2018-Jun-21 00:28N 35°22' E 139°51'0 0.0
2018-Jun-20 23:57N 35°22' E 139°51'0 0.0
2018-Jun-20 23:29N 35°22' E 139°51'0 0.0
2018-Jun-20 23:00N 35°22' E 139°51'0 0.0
2018-Jun-20 22:27N 35°22' E 139°51'0 0.0
2018-Jun-20 21:58N 35°22' E 139°51'0 0.0
2018-Jun-20 20:48N 35°22' E 139°51'0 0.0
2018-Jun-20 20:26N 35°22' E 139°51'0 0.0
2018-Jun-20 20:00N 35°22' E 139°51'0 0.0
2018-Jun-20 19:30N 35°22' E 139°51'0 0.0
2018-Jun-20 19:00N 35°22' E 139°51'0 0.0
2018-Jun-20 18:30N 35°22' E 139°51'0 0.0
2018-Jun-20 17:59N 35°22' E 139°51'0 0.0
2018-Jun-20 17:30N 35°22' E 139°51'0 0.0
2018-Jun-20 16:59N 35°22' E 139°51'0 0.0
2018-Jun-20 16:30N 35°22' E 139°51'0 0.0
2018-Jun-20 16:00N 35°22' E 139°51'0 0.0
2018-Jun-20 15:30N 35°22' E 139°51'0 0.0
2018-Jun-20 14:58N 35°22' E 139°51'0 0.0
2018-Jun-20 14:30N 35°22' E 139°51'0 0.0
2018-Jun-20 14:00N 35°22' E 139°51'0 0.0
2018-Jun-20 13:30N 35°22' E 139°51'0 0.0
2018-Jun-20 13:00N 35°22' E 139°51'0 0.0
2018-Jun-20 12:30N 35°22' E 139°51'0 0.0
2018-Jun-20 12:00N 35°22' E 139°51'0 0.0
2018-Jun-20 11:29N 35°22' E 139°51'0 0.0
2018-Jun-20 10:59N 35°22' E 139°51'0 0.0
2018-Jun-20 10:30N 35°22' E 139°51'0 0.0
2018-Jun-20 10:00N 35°22' E 139°51'0 0.0
2018-Jun-20 08:22N 35°22' E 139°51'0 0.0
2018-Jun-20 07:54N 35°22' E 139°51'0 0.0
2018-Jun-20 07:30N 35°22' E 139°51'0 0.0
2018-Jun-20 07:00N 35°22' E 139°51'0 0.0
2018-Jun-20 06:25N 35°22' E 139°51'0 0.0
2018-Jun-20 05:49N 35°22' E 139°51'0 0.0
2018-Jun-20 05:28N 35°22' E 139°51'0 0.0
2018-Jun-20 05:00N 35°22' E 139°51'0 0.0
2018-Jun-20 04:24N 35°22' E 139°51'0 0.0
2018-Jun-20 03:59N 35°22' E 139°51'0 0.0
2018-Jun-20 03:28N 35°22' E 139°51'0 0.0
2018-Jun-20 02:59N 35°22' E 139°51'0 0.0
2018-Jun-20 02:30N 35°22' E 139°51'0 0.0
2018-Jun-20 02:00N 35°22' E 139°51'0 0.0
2018-Jun-20 01:30N 35°22' E 139°51'0 0.0
2018-Jun-20 01:00N 35°22' E 139°51'0 0.0
2018-Jun-20 00:29N 35°22' E 139°51'0 0.0
2018-Jun-19 23:59N 35°22' E 139°51'0 0.0
2018-Jun-19 23:28N 35°22' E 139°51'0 0.0
2018-Jun-19 22:58N 35°22' E 139°51'0 0.0
2018-Jun-19 22:26N 35°22' E 139°51'1 3.0
2018-Jun-19 21:57N 35°22' E 139°52'1 0.0
2018-Jun-18 02:04N 35°22' E 139°54'1 9.0
2018-Jun-18 01:59N 35°22' E 139°53'3 5.0
2018-Jun-18 01:29N 35°23' E 139°50'0 0.0
2018-Jun-17 23:47N 35°23' E 139°50'0 0.0
2018-Jun-17 23:26N 35°23' E 139°50'0 0.0
2018-Jun-17 22:50N 35°23' E 139°50'0 0.0
2018-Jun-17 20:32N 35°23' E 139°50'0 0.0
2018-Jun-17 19:26N 35°23' E 139°50'0 0.0
2018-Jun-17 18:59N 35°23' E 139°50'0 0.0
2018-Jun-17 12:26N 35°23' E 139°50'0 0.0
2018-Jun-17 11:56N 35°23' E 139°50'0 0.0
2018-Jun-17 11:17N 35°23' E 139°50'0 0.1
2018-Jun-17 10:44N 35°24' E 139°50'0 0.0
2018-Jun-17 10:08N 35°24' E 139°50'0 0.0
2018-Jun-17 09:56N 35°24' E 139°50'0 0.0
2018-Jun-17 08:47N 35°24' E 139°50'0 0.0
2018-Jun-17 08:26N 35°24' E 139°50'0 0.0
2018-Jun-17 07:02N 35°24' E 139°50'0 0.1
2018-Jun-17 06:59N 35°24' E 139°50'0 0.0
2018-Jun-17 06:29N 35°24' E 139°50'0 0.0
2018-Jun-17 05:26N 35°23' E 139°50'0 0.1
2018-Jun-17 04:47N 35°23' E 139°50'0 0.0
2018-Jun-17 04:20N 35°23' E 139°50'0 0.0
2018-Jun-17 03:44N 35°23' E 139°50'0 0.0
2018-Jun-17 02:47N 35°23' E 139°50'2 5.8
2018-Jun-17 02:30N 35°23' E 139°49'4 8.0
2018-Jun-17 02:00N 35°20' E 139°45'4 8.4
2018-Jun-17 01:30N 35°16' E 139°46'4 8.3
2018-Jun-17 00:59N 35°12' E 139°47'248 8.8
2018-Jun-15 20:57N 33°50' E 135°03'510.6
2018-Jun-15 20:29N 33°53' E 134°59'510.8
2018-Jun-15 20:00N 33°57' E 134°55'610.6
2018-Jun-15 19:24N 34°02' E 134°50'410.7
2018-Jun-15 19:00N 34°05' E 134°47'811.5
2018-Jun-15 18:20N 34°11' E 134°41'911.1
2018-Jun-15 17:34N 34°17' E 134°33'1 9.0
2018-Jun-15 17:29N 34°17' E 134°32'5 9.9
2018-Jun-15 17:00N 34°19' E 134°27'610.4
2018-Jun-15 16:27N 34°21' E 134°21'262 8.1
2018-Jun-14 08:10N 35°05' E 129°07'2 9.4
2018-Jun-14 08:00N 35°06' E 129°05'2 3.2
2018-Jun-14 07:30N 35°07' E 129°04'0 0.0
2018-Jun-14 07:00N 35°07' E 129°04'0 0.0
2018-Jun-14 06:30N 35°07' E 129°04'0 0.0
2018-Jun-14 06:00N 35°07' E 129°04'0 0.0
2018-Jun-14 05:30N 35°07' E 129°04'0 0.0
2018-Jun-14 05:00N 35°07' E 129°04'0 0.0
2018-Jun-14 04:30N 35°07' E 129°04'0 0.0
2018-Jun-14 04:00N 35°07' E 129°04'0 0.0
2018-Jun-14 03:30N 35°07' E 129°04'0 0.0
2018-Jun-14 03:00N 35°07' E 129°04'0 0.0
2018-Jun-14 02:30N 35°07' E 129°04'0 0.0
2018-Jun-14 02:00N 35°07' E 129°04'0 0.0
2018-Jun-14 01:24N 35°07' E 129°04'0 0.0
2018-Jun-14 01:00N 35°07' E 129°04'0 0.0
2018-Jun-14 00:30N 35°07' E 129°04'0 0.0
2018-Jun-14 00:00N 35°07' E 129°04'0 0.0
2018-Jun-13 23:24N 35°07' E 129°04'0 0.0
2018-Jun-13 23:00N 35°07' E 129°04'0 0.0
2018-Jun-13 22:30N 35°07' E 129°04'0 0.0
2018-Jun-13 22:00N 35°07' E 129°04'0 0.0
2018-Jun-13 21:30N 35°07' E 129°04'0 0.0
2018-Jun-13 21:00N 35°07' E 129°04'0 0.0
2018-Jun-13 20:30N 35°07' E 129°04'0 0.0
2018-Jun-13 20:00N 35°07' E 129°04'0 0.0
2018-Jun-13 19:30N 35°07' E 129°04'0 0.0
2018-Jun-13 19:00N 35°07' E 129°04'0 0.0
2018-Jun-13 18:30N 35°07' E 129°04'0 0.0
2018-Jun-13 18:00N 35°07' E 129°04'0 0.0
2018-Jun-13 17:30N 35°07' E 129°04'0 0.0
2018-Jun-13 17:00N 35°07' E 129°04'0 0.0
2018-Jun-13 16:30N 35°07' E 129°04'0 0.0
2018-Jun-13 16:00N 35°07' E 129°04'0 0.0
2018-Jun-13 15:30N 35°07' E 129°04'0 0.0
2018-Jun-13 15:00N 35°07' E 129°04'0 0.0
2018-Jun-13 14:30N 35°07' E 129°04'0 0.0
2018-Jun-13 14:00N 35°07' E 129°04'0 0.0
2018-Jun-13 13:30N 35°07' E 129°04'0 0.0
2018-Jun-13 13:00N 35°07' E 129°04'0 0.0
2018-Jun-13 12:30N 35°07' E 129°04'0 0.0
2018-Jun-13 11:59N 35°07' E 129°04'0 0.0
2018-Jun-13 11:30N 35°07' E 129°04'0 0.0
2018-Jun-13 11:00N 35°07' E 129°04'0 0.0
2018-Jun-13 10:30N 35°07' E 129°04'0 0.0
2018-Jun-13 10:00N 35°07' E 129°04'0 0.0
2018-Jun-13 09:30N 35°07' E 129°04'0 0.0
2018-Jun-13 08:58N 35°07' E 129°04'0 0.0
2018-Jun-13 08:30N 35°07' E 129°04'0 0.0
2018-Jun-13 08:00N 35°07' E 129°04'0 0.0
2018-Jun-13 07:30N 35°07' E 129°04'0 0.0
2018-Jun-13 07:00N 35°07' E 129°04'0 0.0
2018-Jun-13 06:30N 35°07' E 129°04'0 0.0
2018-Jun-13 06:00N 35°07' E 129°04'0 0.0
2018-Jun-13 05:30N 35°07' E 129°04'0 0.0
2018-Jun-13 05:00N 35°07' E 129°04'0 0.0
2018-Jun-13 04:30N 35°07' E 129°04'0 0.0
2018-Jun-13 04:00N 35°07' E 129°04'0 0.0
2018-Jun-13 03:30N 35°07' E 129°04'0 0.0
2018-Jun-13 03:00N 35°07' E 129°04'0 0.0
2018-Jun-13 02:30N 35°07' E 129°04'0 0.0
2018-Jun-13 02:00N 35°07' E 129°04'0 0.0
2018-Jun-13 01:30N 35°07' E 129°04'2 3.9
2018-Jun-13 01:00N 35°05' E 129°06'5 9.4
2018-Jun-13 00:29N 35°03' E 129°11'  
Track history (hours):
 
Tides and Currents Weather Stations Pressure Air Temp Water Temp Dewpoint Dewpoint Depression Visibility Wind Speed Wind Dir Waves Ship Positions

Shizka

Last reported at 2018-Jun-22 06:24 UTC. Time now 2018-Jun-23 00:54 UTC.
Position N 35°09' E 139°42'.

Length 74 m; draft 5.2 m.

Type: Cargo ship. MMSI: 441613000.

Date/timePositionNaut miles runAvg speedWind from/ knotsBaromVisibWave heightAir tempDewpointWater temp
2018-Jun-22 06:24N 35°09' E 139°42'4 9.4
2018-Jun-22 05:58N 35°12' E 139°45'4 9.2
2018-Jun-22 05:30N 35°16' E 139°46'510.0
2018-Jun-22 05:00N 35°20' E 139°42'5 9.3
2018-Jun-22 04:30N 35°25' E 139°44'4 8.1
2018-Jun-22 04:01N 35°24' E 139°48'3 1.8
2018-Jun-22 02:24N 35°22' E 139°51'0 0.0
2018-Jun-22 01:45N 35°22' E 139°51'0 0.0
2018-Jun-22 01:27N 35°22' E 139°51'0 0.0
2018-Jun-22 01:00N 35°22' E 139°51'0 0.0
2018-Jun-22 00:24N 35°22' E 139°51'0 0.0
2018-Jun-22 00:00N 35°22' E 139°51'0 0.0
2018-Jun-21 23:27N 35°22' E 139°51'0 0.0
2018-Jun-21 22:57N 35°22' E 139°51'0 0.0
2018-Jun-21 22:27N 35°22' E 139°51'0 0.0
2018-Jun-21 21:57N 35°22' E 139°51'0 0.0
2018-Jun-21 21:30N 35°22' E 139°51'0 0.0
2018-Jun-21 20:57N 35°22' E 139°51'0 0.0
2018-Jun-21 20:30N 35°22' E 139°51'0 0.0
2018-Jun-21 20:00N 35°22' E 139°51'0 0.0
2018-Jun-21 19:29N 35°22' E 139°51'0 0.0
2018-Jun-21 19:00N 35°22' E 139°51'0 0.0
2018-Jun-21 18:31N 35°22' E 139°51'0 0.0
2018-Jun-21 17:58N 35°22' E 139°51'0 0.0
2018-Jun-21 17:31N 35°22' E 139°51'0 0.0
2018-Jun-21 17:00N 35°22' E 139°51'0 0.0
2018-Jun-21 16:25N 35°22' E 139°51'0 0.0
2018-Jun-21 16:00N 35°22' E 139°51'0 0.0
2018-Jun-21 15:30N 35°22' E 139°51'0 0.0
2018-Jun-21 15:01N 35°22' E 139°51'0 0.0
2018-Jun-21 14:31N 35°22' E 139°51'0 0.0
2018-Jun-21 14:01N 35°22' E 139°51'0 0.0
2018-Jun-21 13:29N 35°22' E 139°51'0 0.0
2018-Jun-21 13:00N 35°22' E 139°51'0 0.0
2018-Jun-21 12:30N 35°22' E 139°51'0 0.0
2018-Jun-21 12:00N 35°22' E 139°51'0 0.0
2018-Jun-21 11:31N 35°22' E 139°51'0 0.0
2018-Jun-21 11:00N 35°22' E 139°51'0 0.0
2018-Jun-21 10:30N 35°22' E 139°51'0 0.0
2018-Jun-21 09:59N 35°22' E 139°51'0 0.0
2018-Jun-21 09:29N 35°22' E 139°51'0 0.0
2018-Jun-21 09:00N 35°22' E 139°51'0 0.0
2018-Jun-21 08:30N 35°22' E 139°51'0 0.0
2018-Jun-21 08:00N 35°22' E 139°51'0 0.0
2018-Jun-21 07:30N 35°22' E 139°51'0 0.0
2018-Jun-21 07:00N 35°22' E 139°51'0 0.0
2018-Jun-21 06:30N 35°22' E 139°51'0 0.0
2018-Jun-21 06:01N 35°22' E 139°51'0 0.0
2018-Jun-21 05:30N 35°22' E 139°51'0 0.0
2018-Jun-21 05:00N 35°22' E 139°51'0 0.0
2018-Jun-21 04:30N 35°22' E 139°51'0 0.0
2018-Jun-21 04:00N 35°22' E 139°51'0 0.0
2018-Jun-21 03:28N 35°22' E 139°51'0 0.0
2018-Jun-21 02:59N 35°22' E 139°51'0 0.0
2018-Jun-21 02:29N 35°22' E 139°51'0 0.0
2018-Jun-21 01:59N 35°22' E 139°51'0 0.0
2018-Jun-21 01:30N 35°22' E 139°51'0 0.0
2018-Jun-21 01:00N 35°22' E 139°51'0 0.0
2018-Jun-21 00:28N 35°22' E 139°51'0 0.0
2018-Jun-20 23:57N 35°22' E 139°51'0 0.0
2018-Jun-20 23:29N 35°22' E 139°51'0 0.0
2018-Jun-20 23:00N 35°22' E 139°51'0 0.0
2018-Jun-20 22:27N 35°22' E 139°51'0 0.0
2018-Jun-20 21:58N 35°22' E 139°51'0 0.0
2018-Jun-20 20:48N 35°22' E 139°51'0 0.0
2018-Jun-20 20:26N 35°22' E 139°51'0 0.0
2018-Jun-20 20:00N 35°22' E 139°51'0 0.0
2018-Jun-20 19:30N 35°22' E 139°51'0 0.0
2018-Jun-20 19:00N 35°22' E 139°51'0 0.0
2018-Jun-20 18:30N 35°22' E 139°51'0 0.0
2018-Jun-20 17:59N 35°22' E 139°51'0 0.0
2018-Jun-20 17:30N 35°22' E 139°51'0 0.0
2018-Jun-20 16:59N 35°22' E 139°51'0 0.0
2018-Jun-20 16:30N 35°22' E 139°51'0 0.0
2018-Jun-20 16:00N 35°22' E 139°51'0 0.0
2018-Jun-20 15:30N 35°22' E 139°51'0 0.0
2018-Jun-20 14:58N 35°22' E 139°51'0 0.0
2018-Jun-20 14:30N 35°22' E 139°51'0 0.0
2018-Jun-20 14:00N 35°22' E 139°51'0 0.0
2018-Jun-20 13:30N 35°22' E 139°51'0 0.0
2018-Jun-20 13:00N 35°22' E 139°51'0 0.0
2018-Jun-20 12:30N 35°22' E 139°51'0 0.0
2018-Jun-20 12:00N 35°22' E 139°51'0 0.0
2018-Jun-20 11:29N 35°22' E 139°51'0 0.0
2018-Jun-20 10:59N 35°22' E 139°51'0 0.0
2018-Jun-20 10:30N 35°22' E 139°51'0 0.0
2018-Jun-20 10:00N 35°22' E 139°51'0 0.0
2018-Jun-20 08:22N 35°22' E 139°51'0 0.0
2018-Jun-20 07:54N 35°22' E 139°51'0 0.0
2018-Jun-20 07:30N 35°22' E 139°51'0 0.0
2018-Jun-20 07:00N 35°22' E 139°51'0 0.0
2018-Jun-20 06:25N 35°22' E 139°51'0 0.0
2018-Jun-20 05:49N 35°22' E 139°51'0 0.0
2018-Jun-20 05:28N 35°22' E 139°51'0 0.0
2018-Jun-20 05:00N 35°22' E 139°51'0 0.0
2018-Jun-20 04:24N 35°22' E 139°51'0 0.0
2018-Jun-20 03:59N 35°22' E 139°51'0 0.0
2018-Jun-20 03:28N 35°22' E 139°51'0 0.0
2018-Jun-20 02:59N 35°22' E 139°51'0 0.0
2018-Jun-20 02:30N 35°22' E 139°51'0 0.0
2018-Jun-20 02:00N 35°22' E 139°51'0 0.0
2018-Jun-20 01:30N 35°22' E 139°51'0 0.0
2018-Jun-20 01:00N 35°22' E 139°51'0 0.0
2018-Jun-20 00:29N 35°22' E 139°51'0 0.0
2018-Jun-19 23:59N 35°22' E 139°51'0 0.0
2018-Jun-19 23:28N 35°22' E 139°51'0 0.0
2018-Jun-19 22:58N 35°22' E 139°51'0 0.0
2018-Jun-19 22:26N 35°22' E 139°51'1 3.0
2018-Jun-19 21:57N 35°22' E 139°52'1 0.0
2018-Jun-18 02:04N 35°22' E 139°54'1 9.0
2018-Jun-18 01:59N 35°22' E 139°53'3 5.0
2018-Jun-18 01:29N 35°23' E 139°50'0 0.0
2018-Jun-17 23:47N 35°23' E 139°50'0 0.0
2018-Jun-17 23:26N 35°23' E 139°50'0 0.0
2018-Jun-17 22:50N 35°23' E 139°50'0 0.0
2018-Jun-17 20:32N 35°23' E 139°50'0 0.0
2018-Jun-17 19:26N 35°23' E 139°50'0 0.0
2018-Jun-17 18:59N 35°23' E 139°50'0 0.0
2018-Jun-17 12:26N 35°23' E 139°50'0 0.0
2018-Jun-17 11:56N 35°23' E 139°50'0 0.0
2018-Jun-17 11:17N 35°23' E 139°50'0 0.1
2018-Jun-17 10:44N 35°24' E 139°50'0 0.0
2018-Jun-17 10:08N 35°24' E 139°50'0 0.0
2018-Jun-17 09:56N 35°24' E 139°50'0 0.0
2018-Jun-17 08:47N 35°24' E 139°50'0 0.0
2018-Jun-17 08:26N 35°24' E 139°50'0 0.0
2018-Jun-17 07:02N 35°24' E 139°50'0 0.1
2018-Jun-17 06:59N 35°24' E 139°50'0 0.0
2018-Jun-17 06:29N 35°24' E 139°50'0 0.0
2018-Jun-17 05:26N 35°23' E 139°50'0 0.1
2018-Jun-17 04:47N 35°23' E 139°50'0 0.0
2018-Jun-17 04:20N 35°23' E 139°50'0 0.0
2018-Jun-17 03:44N 35°23' E 139°50'0 0.0
2018-Jun-17 02:47N 35°23' E 139°50'2 5.8
2018-Jun-17 02:30N 35°23' E 139°49'4 8.0
2018-Jun-17 02:00N 35°20' E 139°45'4 8.4
2018-Jun-17 01:30N 35°16' E 139°46'4 8.3
2018-Jun-17 00:59N 35°12' E 139°47'248 8.8
2018-Jun-15 20:57N 33°50' E 135°03'510.6
2018-Jun-15 20:29N 33°53' E 134°59'510.8
2018-Jun-15 20:00N 33°57' E 134°55'610.6
2018-Jun-15 19:24N 34°02' E 134°50'410.7
2018-Jun-15 19:00N 34°05' E 134°47'811.5
2018-Jun-15 18:20N 34°11' E 134°41'911.1
2018-Jun-15 17:34N 34°17' E 134°33'1 9.0
2018-Jun-15 17:29N 34°17' E 134°32'5 9.9
2018-Jun-15 17:00N 34°19' E 134°27'610.4
2018-Jun-15 16:27N 34°21' E 134°21'262 8.1
2018-Jun-14 08:10N 35°05' E 129°07'2 9.4
2018-Jun-14 08:00N 35°06' E 129°05'2 3.2
2018-Jun-14 07:30N 35°07' E 129°04'0 0.0
2018-Jun-14 07:00N 35°07' E 129°04'0 0.0
2018-Jun-14 06:30N 35°07' E 129°04'0 0.0
2018-Jun-14 06:00N 35°07' E 129°04'0 0.0
2018-Jun-14 05:30N 35°07' E 129°04'0 0.0
2018-Jun-14 05:00N 35°07' E 129°04'0 0.0
2018-Jun-14 04:30N 35°07' E 129°04'0 0.0
2018-Jun-14 04:00N 35°07' E 129°04'0 0.0
2018-Jun-14 03:30N 35°07' E 129°04'0 0.0
2018-Jun-14 03:00N 35°07' E 129°04'0 0.0
2018-Jun-14 02:30N 35°07' E 129°04'0 0.0
2018-Jun-14 02:00N 35°07' E 129°04'0 0.0
2018-Jun-14 01:24N 35°07' E 129°04'0 0.0
2018-Jun-14 01:00N 35°07' E 129°04'0 0.0
2018-Jun-14 00:30N 35°07' E 129°04'0 0.0
2018-Jun-14 00:00N 35°07' E 129°04'0 0.0
2018-Jun-13 23:24N 35°07' E 129°04'0 0.0
2018-Jun-13 23:00N 35°07' E 129°04'0 0.0
2018-Jun-13 22:30N 35°07' E 129°04'0 0.0
2018-Jun-13 22:00N 35°07' E 129°04'0 0.0
2018-Jun-13 21:30N 35°07' E 129°04'0 0.0
2018-Jun-13 21:00N 35°07' E 129°04'0 0.0
2018-Jun-13 20:30N 35°07' E 129°04'0 0.0
2018-Jun-13 20:00N 35°07' E 129°04'0 0.0
2018-Jun-13 19:30N 35°07' E 129°04'0 0.0
2018-Jun-13 19:00N 35°07' E 129°04'0 0.0
2018-Jun-13 18:30N 35°07' E 129°04'0 0.0
2018-Jun-13 18:00N 35°07' E 129°04'0 0.0
2018-Jun-13 17:30N 35°07' E 129°04'0 0.0
2018-Jun-13 17:00N 35°07' E 129°04'0 0.0
2018-Jun-13 16:30N 35°07' E 129°04'0 0.0
2018-Jun-13 16:00N 35°07' E 129°04'0 0.0
2018-Jun-13 15:30N 35°07' E 129°04'0 0.0
2018-Jun-13 15:00N 35°07' E 129°04'0 0.0
2018-Jun-13 14:30N 35°07' E 129°04'0 0.0
2018-Jun-13 14:00N 35°07' E 129°04'0 0.0
2018-Jun-13 13:30N 35°07' E 129°04'0 0.0
2018-Jun-13 13:00N 35°07' E 129°04'0 0.0
2018-Jun-13 12:30N 35°07' E 129°04'0 0.0
2018-Jun-13 11:59N 35°07' E 129°04'0 0.0
2018-Jun-13 11:30N 35°07' E 129°04'0 0.0
2018-Jun-13 11:00N 35°07' E 129°04'0 0.0
2018-Jun-13 10:30N 35°07' E 129°04'0 0.0
2018-Jun-13 10:00N 35°07' E 129°04'0 0.0
2018-Jun-13 09:30N 35°07' E 129°04'0 0.0
2018-Jun-13 08:58N 35°07' E 129°04'0 0.0
2018-Jun-13 08:30N 35°07' E 129°04'0 0.0
2018-Jun-13 08:00N 35°07' E 129°04'0 0.0
2018-Jun-13 07:30N 35°07' E 129°04'0 0.0
2018-Jun-13 07:00N 35°07' E 129°04'0 0.0
2018-Jun-13 06:30N 35°07' E 129°04'0 0.0
2018-Jun-13 06:00N 35°07' E 129°04'0 0.0
2018-Jun-13 05:30N 35°07' E 129°04'0 0.0
2018-Jun-13 05:00N 35°07' E 129°04'0 0.0
2018-Jun-13 04:30N 35°07' E 129°04'0 0.0
2018-Jun-13 04:00N 35°07' E 129°04'0 0.0
2018-Jun-13 03:30N 35°07' E 129°04'0 0.0
2018-Jun-13 03:00N 35°07' E 129°04'0 0.0
2018-Jun-13 02:30N 35°07' E 129°04'0 0.0
2018-Jun-13 02:00N 35°07' E 129°04'0 0.0
2018-Jun-13 01:30N 35°07' E 129°04'2 3.9
2018-Jun-13 01:00N 35°05' E 129°06'5 9.4
2018-Jun-13 00:29N 35°03' E 129°11'  

Dump ship's entire track history